Time;durP1;ratioP1;P1;durP2;ratioP2;P2;SDS_P1;SDS_P2;PMS_P1;PMS_P2;Temp;Humidity;BMP_temperature;BMP_pressure;BME280_temperature;BME280_humidity;BME280_pressure;Samples;Min_cycle;Max_cycle;Signal;HPM_P1;HPM_P2
2020/12/21 00:00:33;;;;;;;26.90;22.40;;;;;;;;;;5053087;28;20367;-78
2020/12/21 00:02:59;;;;;;;26.45;23.35;;;;;;;;;;5070883;28;20355;-78
2020/12/21 00:05:25;;;;;;;26.23;22.40;;;;;;;;;;5070245;28;20366;-78
2020/12/21 00:07:51;;;;;;;25.65;22.90;;;;;;;;;;5071658;28;20871;-78
2020/12/21 00:10:17;;;;;;;29.00;23.47;;;;;;;;;;5053321;28;20378;-78
2020/12/21 00:12:44;;;;;;;24.40;21.67;;;;;;;;;;5071480;28;20373;-79
2020/12/21 00:15:10;;;;;;;25.85;22.23;;;;;;;;;;5049719;28;20370;-77
2020/12/21 00:17:36;;;;;;;27.25;23.23;;;;;;;;;;5040902;28;20366;-77
2020/12/21 00:20:02;;;;;;;25.70;22.00;;;;;;;;;;5060060;28;20423;-77
2020/12/21 00:22:28;;;;;;;26.90;22.55;;;;;;;;;;5040740;28;20379;-77
2020/12/21 00:24:54;;;;;;;24.25;21.60;;;;;;;;;;5044422;28;20467;-77
2020/12/21 00:27:20;;;;;;;25.80;22.77;;;;;;;;;;5059575;28;20395;-78
2020/12/21 00:29:47;;;;;;;29.38;24.35;;;;;;;;;;5041548;28;20473;-76
2020/12/21 00:32:13;;;;;;;34.55;27.48;;;;;;;;;;5059323;28;20574;-78
2020/12/21 00:34:39;;;;;;;35.05;28.02;;;;;;;;;;5039610;28;20839;-77
2020/12/21 00:37:06;;;;;;;31.33;26.08;;;;;;;;;;5033613;28;20378;-77
2020/12/21 00:39:32;;;;;;;32.90;26.92;;;;;;;;;;5056302;28;20436;-77
2020/12/21 00:41:58;;;;;;;34.13;26.40;;;;;;;;;;5043887;28;20383;-78
2020/12/21 00:44:24;;;;;;;32.15;26.40;;;;;;;;;;5057223;28;20360;-77
2020/12/21 00:46:50;;;;;;;30.67;25.77;;;;;;;;;;5051074;28;20692;-77
2020/12/21 00:49:16;;;;;;;28.70;23.88;;;;;;;;;;5050710;28;20387;-78
2020/12/21 00:51:43;;;;;;;29.67;24.77;;;;;;;;;;5050716;28;20356;-78
2020/12/21 00:54:09;;;;;;;32.88;26.48;;;;;;;;;;5050838;28;20996;-78
2020/12/21 00:56:35;;;;;;;31.20;25.67;;;;;;;;;;5032912;28;20415;-77
2020/12/21 00:59:01;;;;;;;31.45;26.08;;;;;;;;;;5050542;28;20407;-77
2020/12/21 01:01:28;;;;;;;32.92;27.42;;;;;;;;;;5050851;28;20715;-78
2020/12/21 01:03:54;;;;;;;32.70;26.67;;;;;;;;;;5032939;28;20455;-78
2020/12/21 01:06:20;;;;;;;32.10;26.38;;;;;;;;;;5050762;28;20359;-77
2020/12/21 01:08:47;;;;;;;33.08;27.27;;;;;;;;;;5050580;28;20374;-77
2020/12/21 01:11:14;;;;;;;36.15;27.92;;;;;;;;;;5050326;28;20370;-77
2020/12/21 01:13:40;;;;;;;36.85;28.48;;;;;;;;;;5050488;28;20360;-77
2020/12/21 01:16:06;;;;;;;33.85;27.42;;;;;;;;;;5032883;28;20379;-77
2020/12/21 01:18:33;;;;;;;35.50;27.65;;;;;;;;;;5050308;28;20465;-76
2020/12/21 01:20:59;;;;;;;33.83;26.02;;;;;;;;;;5050140;28;20395;-77
2020/12/21 01:23:25;;;;;;;33.60;26.67;;;;;;;;;;5050410;28;20799;-78
2020/12/21 01:25:51;;;;;;;35.70;28.40;;;;;;;;;;5050792;28;20368;-77
2020/12/21 01:28:17;;;;;;;38.80;28.88;;;;;;;;;;5050737;28;20360;-79
2020/12/21 01:30:44;;;;;;;33.25;27.88;;;;;;;;;;5032486;28;20360;-78
2020/12/21 01:33:10;;;;;;;29.33;24.40;;;;;;;;;;5050367;28;20851;-77
2020/12/21 01:35:36;;;;;;;35.45;28.05;;;;;;;;;;5032578;28;20364;-77
2020/12/21 01:38:02;;;;;;;33.78;27.15;;;;;;;;;;5050379;28;20908;-79
2020/12/21 01:40:28;;;;;;;36.42;28.77;;;;;;;;;;5032204;28;20376;-78
2020/12/21 01:42:54;;;;;;;35.42;27.90;;;;;;;;;;5032686;28;20446;-77
2020/12/21 01:45:20;;;;;;;36.70;28.17;;;;;;;;;;5050153;28;20442;-79
2020/12/21 01:47:47;;;;;;;30.10;25.63;;;;;;;;;;5032523;28;20382;-78
2020/12/21 01:50:14;;;;;;;37.53;28.70;;;;;;;;;;5032132;28;20375;-77
2020/12/21 01:52:40;;;;;;;37.77;29.40;;;;;;;;;;5032323;28;20453;-79
2020/12/21 01:55:06;;;;;;;38.40;29.25;;;;;;;;;;5050123;28;20363;-77
2020/12/21 01:57:32;;;;;;;36.47;28.25;;;;;;;;;;5050174;28;20368;-78
2020/12/21 01:59:59;;;;;;;35.20;27.75;;;;;;;;;;5031887;28;20415;-78
2020/12/21 02:02:25;;;;;;;34.58;27.08;;;;;;;;;;5034445;28;20755;-77
2020/12/21 02:04:51;;;;;;;36.00;29.17;;;;;;;;;;5054088;28;20366;-77
2020/12/21 02:07:17;;;;;;;39.13;29.90;;;;;;;;;;5054185;28;20835;-77
2020/12/21 02:09:43;;;;;;;39.50;30.60;;;;;;;;;;5035922;28;20376;-78
2020/12/21 02:12:10;;;;;;;37.50;29.00;;;;;;;;;;5036012;28;20368;-78
2020/12/21 02:14:36;;;;;;;36.53;27.80;;;;;;;;;;5053999;28;20754;-78
2020/12/21 02:17:02;;;;;;;38.97;29.27;;;;;;;;;;5036039;28;20426;-79
2020/12/21 02:19:28;;;;;;;38.65;29.85;;;;;;;;;;5035589;28;20439;-77
2020/12/21 02:21:54;;;;;;;37.30;29.10;;;;;;;;;;5053678;28;20399;-78
2020/12/21 02:24:20;;;;;;;44.30;32.95;;;;;;;;;;5053722;28;20439;-78
2020/12/21 02:26:46;;;;;;;45.97;33.10;;;;;;;;;;5053664;28;20490;-77
2020/12/21 02:29:12;;;;;;;44.03;32.70;;;;;;;;;;5053903;28;20708;-78
2020/12/21 02:31:38;;;;;;;47.25;33.53;;;;;;;;;;5053637;28;20364;-77
2020/12/21 02:34:03;;;;;;;47.95;35.15;;;;;;;;;;5035658;28;20786;-78
2020/12/21 02:36:29;;;;;;;43.53;33.47;;;;;;;;;;5035404;28;20364;-77
2020/12/21 02:38:55;;;;;;;42.00;32.33;;;;;;;;;;5035654;28;20769;-77
2020/12/21 02:41:21;;;;;;;44.08;33.38;;;;;;;;;;5053003;28;20405;-76
2020/12/21 02:43:47;;;;;;;45.75;33.00;;;;;;;;;;5035602;28;20403;-77
2020/12/21 02:46:15;;;;;;;47.27;33.30;;;;;;;;;;5035547;28;20797;-78
2020/12/21 02:48:41;;;;;;;48.40;34.65;;;;;;;;;;5053422;28;20394;-78
2020/12/21 02:51:07;;;;;;;50.38;35.17;;;;;;;;;;5052885;28;20853;-79
2020/12/21 02:53:33;;;;;;;46.60;34.63;;;;;;;;;;5053188;28;20417;-78
2020/12/21 02:55:59;;;;;;;49.40;35.28;;;;;;;;;;5035440;28;20376;-77
2020/12/21 02:58:25;;;;;;;51.88;36.88;;;;;;;;;;5035242;28;20395;-79
2020/12/21 03:00:51;;;;;;;49.67;36.10;;;;;;;;;;5052837;28;20352;-77
2020/12/21 03:03:17;;;;;;;49.22;35.75;;;;;;;;;;5053366;28;20921;-79
2020/12/21 03:05:43;;;;;;;52.13;37.50;;;;;;;;;;5035129;28;20439;-77
2020/12/21 03:08:10;;;;;;;46.33;34.40;;;;;;;;;;5035095;28;20924;-79
2020/12/21 03:10:37;;;;;;;55.30;36.95;;;;;;;;;;5034761;28;20372;-78
2020/12/21 03:13:03;;;;;;;56.05;39.13;;;;;;;;;;5052993;28;20713;-77
2020/12/21 03:15:29;;;;;;;59.17;40.17;;;;;;;;;;5052880;28;20391;-78
2020/12/21 03:17:55;;;;;;;55.87;38.90;;;;;;;;;;5052831;28;20356;-78
2020/12/21 03:20:22;;;;;;;55.78;39.05;;;;;;;;;;5052238;28;20392;-77
2020/12/21 03:22:48;;;;;;;56.60;38.70;;;;;;;;;;5053136;28;20391;-78
2020/12/21 03:25:14;;;;;;;56.38;39.50;;;;;;;;;;5053105;28;20360;-77
2020/12/21 03:27:41;;;;;;;54.45;38.33;;;;;;;;;;5052850;28;20866;-77
2020/12/21 03:30:07;;;;;;;55.50;38.25;;;;;;;;;;5034472;28;20459;-78
2020/12/21 03:32:33;;;;;;;50.55;36.25;;;;;;;;;;5052322;28;20398;-77
2020/12/21 03:34:59;;;;;;;52.40;37.40;;;;;;;;;;5034415;28;20855;-78
2020/12/21 03:37:25;;;;;;;45.60;34.63;;;;;;;;;;5052294;28;20374;-77
2020/12/21 03:39:51;;;;;;;51.63;36.42;;;;;;;;;;5052112;28;20445;-78
2020/12/21 03:42:17;;;;;;;55.25;38.88;;;;;;;;;;5034369;28;20483;-77
2020/12/21 03:44:43;;;;;;;48.30;36.35;;;;;;;;;;5034368;28;20372;-77
2020/12/21 03:47:09;;;;;;;48.15;35.30;;;;;;;;;;5034439;28;20463;-77
2020/12/21 03:49:35;;;;;;;48.67;35.63;;;;;;;;;;5052187;28;20443;-78
2020/12/21 03:52:01;;;;;;;47.28;35.00;;;;;;;;;;5034308;28;20451;-77
2020/12/21 03:54:27;;;;;;;48.60;35.73;;;;;;;;;;5034439;28;20861;-77
2020/12/21 03:56:53;;;;;;;49.03;35.33;;;;;;;;;;5034390;28;20372;-78
2020/12/21 03:59:19;;;;;;;49.13;35.40;;;;;;;;;;5033868;28;20407;-79
2020/12/21 04:01:45;;;;;;;43.38;32.80;;;;;;;;;;5052119;28;20372;-79
2020/12/21 04:04:11;;;;;;;45.70;33.28;;;;;;;;;;5033921;28;20422;-78
2020/12/21 04:06:37;;;;;;;47.88;34.70;;;;;;;;;;5052354;28;20363;-76
2020/12/21 04:09:04;;;;;;;45.75;33.45;;;;;;;;;;5033791;28;20777;-78
2020/12/21 04:11:30;;;;;;;49.47;35.20;;;;;;;;;;5052008;28;20372;-77
2020/12/21 04:13:56;;;;;;;51.90;36.00;;;;;;;;;;5033729;28;20384;-79
2020/12/21 04:16:22;;;;;;;52.30;36.60;;;;;;;;;;5051645;28;20368;-79
2020/12/21 04:18:48;;;;;;;51.08;36.33;;;;;;;;;;5051434;28;20473;-77
2020/12/21 04:21:14;;;;;;;54.97;38.30;;;;;;;;;;5033666;28;20380;-77
2020/12/21 04:23:41;;;;;;;57.40;38.40;;;;;;;;;;5051420;28;20367;-78
2020/12/21 04:26:07;;;;;;;51.13;37.22;;;;;;;;;;5051364;28;20360;-77
2020/12/21 04:28:33;;;;;;;46.97;34.85;;;;;;;;;;5051442;28;20383;-77
2020/12/21 04:31:03;;;;;;;51.80;36.67;;;;;;;;;;5033172;28;20364;-77
2020/12/21 04:33:30;;;;;;;48.03;35.42;;;;;;;;;;5033251;28;20372;-78
2020/12/21 04:35:56;;;;;;;45.65;34.38;;;;;;;;;;5051498;28;20364;-78
2020/12/21 04:38:22;;;;;;;49.75;35.95;;;;;;;;;;5033394;28;20379;-76
2020/12/21 04:41:06;;;;;;;47.03;35.05;;;;;;;;;;5050957;28;20375;-79
2020/12/21 04:43:33;;;;;;;46.60;33.75;;;;;;;;;;5033300;28;20364;-77
2020/12/21 04:46:01;;;;;;;42.15;32.92;;;;;;;;;;5051038;28;20866;-78
2020/12/21 04:48:29;;;;;;;49.78;35.13;;;;;;;;;;5051206;28;20356;-76
2020/12/21 04:50:55;;;;;;;40.65;32.20;;;;;;;;;;5051174;28;20360;-78
2020/12/21 04:53:22;;;;;;;50.20;33.90;;;;;;;;;;5033152;28;20368;-78
2020/12/21 04:55:48;;;;;;;42.47;33.00;;;;;;;;;;5032974;28;20410;-78
2020/12/21 04:58:15;;;;;;;39.33;30.42;;;;;;;;;;5032745;28;20413;-77
2020/12/21 05:00:41;;;;;;;44.28;32.25;;;;;;;;;;5032492;28;20463;-80
2020/12/21 05:03:07;;;;;;;41.08;32.17;;;;;;;;;;5050765;28;20360;-77
2020/12/21 05:05:43;;;;;;;46.03;32.63;;;;;;;;;;5032913;28;20946;-78
2020/12/21 05:08:10;;;;;;;43.35;32.88;;;;;;;;;;5032849;28;20371;-78
2020/12/21 05:10:37;;;;;;;39.88;31.05;;;;;;;;;;5032505;28;20372;-78
2020/12/21 05:13:03;;;;;;;40.33;30.48;;;;;;;;;;5050443;28;20413;-77
2020/12/21 05:15:29;;;;;;;40.20;31.88;;;;;;;;;;5033021;28;20866;-78
2020/12/21 05:18:06;;;;;;;39.78;30.92;;;;;;;;;;5032996;28;20376;-79
2020/12/21 05:20:32;;;;;;;39.92;32.05;;;;;;;;;;5050382;28;20407;-77
2020/12/21 05:22:58;;;;;;;44.53;34.67;;;;;;;;;;5050469;28;20356;-78
2020/12/21 05:25:24;;;;;;;46.93;34.90;;;;;;;;;;5050438;28;20472;-78
2020/12/21 05:27:50;;;;;;;47.00;35.45;;;;;;;;;;5032741;28;20470;-77
2020/12/21 05:30:16;;;;;;;56.10;38.78;;;;;;;;;;5050291;28;20457;-77
2020/12/21 05:32:42;;;;;;;47.95;35.83;;;;;;;;;;5050342;28;20777;-76
2020/12/21 05:35:10;;;;;;;52.10;36.38;;;;;;;;;;5032491;28;20415;-78
2020/12/21 05:37:36;;;;;;;52.17;38.72;;;;;;;;;;5049540;28;20447;-79
2020/12/21 05:40:03;;;;;;;55.75;38.30;;;;;;;;;;5050286;28;20969;-79
2020/12/21 05:42:29;;;;;;;52.28;38.15;;;;;;;;;;5032707;28;20380;-78
2020/12/21 05:44:56;;;;;;;52.77;38.07;;;;;;;;;;5032580;28;20932;-78
2020/12/21 05:47:23;;;;;;;50.42;36.55;;;;;;;;;;5032541;28;20376;-77
2020/12/21 05:49:56;;;;;;;46.67;35.03;;;;;;;;;;5032268;28;20421;-77
2020/12/21 05:52:29;;;;;;;60.15;39.47;;;;;;;;;;5032140;28;20469;-79
2020/12/21 05:54:55;;;;;;;45.67;34.63;;;;;;;;;;5032340;28;20368;-79
2020/12/21 05:57:21;;;;;;;44.38;33.72;;;;;;;;;;5032430;28;20876;-78
2020/12/21 05:59:51;;;;;;;48.33;35.33;;;;;;;;;;5049933;28;20468;-79
2020/12/21 06:02:18;;;;;;;44.85;33.67;;;;;;;;;;5032164;28;20376;-78
2020/12/21 06:04:48;;;;;;;46.70;33.70;;;;;;;;;;5032355;28;20395;-79
2020/12/21 06:07:20;;;;;;;54.13;37.33;;;;;;;;;;5032545;28;20376;-77
2020/12/21 06:09:49;;;;;;;40.35;33.15;;;;;;;;;;5049939;28;20368;-78
2020/12/21 06:12:15;;;;;;;49.78;35.80;;;;;;;;;;5032312;28;20408;-79
2020/12/21 06:14:42;;;;;;;52.67;37.78;;;;;;;;;;5050194;28;20367;-78
2020/12/21 06:17:13;;;;;;;57.92;41.15;;;;;;;;;;5032166;28;20379;-77
2020/12/21 06:19:39;;;;;;;50.45;36.70;;;;;;;;;;5031717;28;20391;-77
2020/12/21 06:22:05;;;;;;;47.70;35.85;;;;;;;;;;5049971;28;20378;-78
2020/12/21 06:24:45;;;;;;;42.33;33.15;;;;;;;;;;5049804;28;20364;-77
2020/12/21 06:27:13;;;;;;;43.27;33.90;;;;;;;;;;5032227;28;20392;-78
2020/12/21 06:29:39;;;;;;;46.40;33.33;;;;;;;;;;5031994;28;20398;-78
2020/12/21 06:32:06;;;;;;;46.00;34.60;;;;;;;;;;5049929;28;20363;-77
2020/12/21 06:34:32;;;;;;;49.13;35.05;;;;;;;;;;5050438;28;20410;-77
2020/12/21 06:37:01;;;;;;;44.70;33.78;;;;;;;;;;5049907;28;21202;-76
2020/12/21 06:39:27;;;;;;;47.67;34.17;;;;;;;;;;5031785;28;20392;-76
2020/12/21 06:42:03;;;;;;;46.85;35.30;;;;;;;;;;5031956;28;20917;-78
2020/12/21 06:44:30;;;;;;;48.23;35.90;;;;;;;;;;5031841;28;20372;-78
2020/12/21 06:46:57;;;;;;;54.60;38.78;;;;;;;;;;5049789;28;20413;-78
2020/12/21 06:49:23;;;;;;;50.67;35.53;;;;;;;;;;5035193;28;20461;-76
2020/12/21 06:51:50;;;;;;;51.05;34.97;;;;;;;;;;5035477;28;20447;-76
2020/12/21 06:54:17;;;;;;;46.70;34.03;;;;;;;;;;5047397;28;21133;-76
2020/12/21 06:56:43;;;;;;;47.73;34.10;;;;;;;;;;5035058;28;20379;-76
2020/12/21 06:59:28;;;;;;;46.10;34.03;;;;;;;;;;5062291;28;20398;-75
2020/12/21 07:01:54;;;;;;;46.92;33.03;;;;;;;;;;5054553;28;20382;-76
2020/12/21 07:04:21;;;;;;;42.70;32.55;;;;;;;;;;5073198;28;20354;-76
2020/12/21 07:06:48;;;;;;;50.05;35.38;;;;;;;;;;5055123;28;20366;-76
2020/12/21 07:09:15;;;;;;;43.90;33.40;;;;;;;;;;5072390;28;20362;-76
2020/12/21 07:11:41;;;;;;;46.55;34.10;;;;;;;;;;5041714;28;20735;-76
2020/12/21 07:14:08;;;;;;;47.03;34.70;;;;;;;;;;5052516;28;20783;-75
2020/12/21 07:16:34;;;;;;;50.50;34.97;;;;;;;;;;5034920;28;20371;-77
2020/12/21 07:19:00;;;;;;;45.90;32.93;;;;;;;;;;5052269;28;20416;-76
2020/12/21 07:21:26;;;;;;;47.13;33.47;;;;;;;;;;5052880;28;20364;-76
2020/12/21 07:23:52;;;;;;;55.85;37.05;;;;;;;;;;5034410;28;20374;-78
2020/12/21 07:26:18;;;;;;;48.40;34.72;;;;;;;;;;5034505;28;20765;-80
2020/12/21 07:28:45;;;;;;;49.42;35.22;;;;;;;;;;5034635;28;21127;-78
2020/12/21 07:31:11;;;;;;;50.47;35.67;;;;;;;;;;5034332;28;20366;-75
2020/12/21 07:33:55;;;;;;;54.60;36.05;;;;;;;;;;5034212;28;20376;-78
2020/12/21 07:36:23;;;;;;;56.15;36.85;;;;;;;;;;5052259;28;20443;-79
2020/12/21 07:38:49;;;;;;;55.88;37.88;;;;;;;;;;5052186;28;20543;-78
2020/12/21 07:41:15;;;;;;;61.60;40.47;;;;;;;;;;5051897;28;20466;-78
2020/12/21 07:43:43;;;;;;;57.92;39.28;;;;;;;;;;5047253;28;20453;-78
2020/12/21 07:46:11;;;;;;;59.20;39.22;;;;;;;;;;5062775;28;20376;-78
2020/12/21 07:48:37;;;;;;;56.40;36.90;;;;;;;;;;5039938;28;20377;-79
2020/12/21 07:51:04;;;;;;;55.23;36.20;;;;;;;;;;5071518;28;20768;-79
2020/12/21 07:53:35;;;;;;;54.38;37.30;;;;;;;;;;5041723;28;20387;-79
2020/12/21 07:56:01;;;;;;;50.70;35.95;;;;;;;;;;5065167;28;20374;-80
2020/12/21 07:58:27;;;;;;;48.80;34.60;;;;;;;;;;5049607;28;20391;-78
2020/12/21 08:00:59;;;;;;;55.55;36.13;;;;;;;;;;5065744;28;20378;-76
2020/12/21 08:03:26;;;;;;;46.75;34.08;;;;;;;;;;5068242;28;20364;-79
2020/12/21 08:06:09;;;;;;;48.17;34.50;;;;;;;;;;5040227;28;20382;-79
2020/12/21 08:08:38;;;;;;;45.13;32.73;;;;;;;;;;5041120;28;20497;-77
2020/12/21 08:11:06;;;;;;;48.10;35.22;;;;;;;;;;5034710;28;20899;-78
2020/12/21 08:13:33;;;;;;;50.22;35.05;;;;;;;;;;5053115;28;20431;-79
2020/12/21 08:16:09;;;;;;;60.17;39.83;;;;;;;;;;5063986;28;20379;-80
2020/12/21 08:18:36;;;;;;;47.70;34.17;;;;;;;;;;5044689;28;20409;-78
2020/12/21 08:21:02;;;;;;;51.80;36.92;;;;;;;;;;5054521;28;20777;-78
2020/12/21 08:23:29;;;;;;;55.50;38.80;;;;;;;;;;5052743;28;20458;-79
2020/12/21 08:25:55;;;;;;;52.00;35.73;;;;;;;;;;5056224;28;20368;-80
2020/12/21 08:28:39;;;;;;;43.75;33.28;;;;;;;;;;5041298;28;20873;-79
2020/12/21 08:31:06;;;;;;;46.00;34.57;;;;;;;;;;5059385;28;20397;-77
2020/12/21 08:33:33;;;;;;;48.90;35.38;;;;;;;;;;5053045;28;20371;-80
2020/12/21 08:36:14;;;;;;;48.50;35.20;;;;;;;;;;5038358;28;20870;-79
2020/12/21 08:38:40;;;;;;;46.65;34.00;;;;;;;;;;5034162;28;20406;-80
2020/12/21 08:41:06;;;;;;;50.80;34.90;;;;;;;;;;5058888;28;20457;-77
2020/12/21 08:43:32;;;;;;;44.60;32.83;;;;;;;;;;5052834;28;20453;-77
2020/12/21 08:45:58;;;;;;;49.72;34.22;;;;;;;;;;5049473;28;20519;-79
2020/12/21 08:48:25;;;;;;;45.15;33.70;;;;;;;;;;5042058;28;20863;-80
2020/12/21 08:50:51;;;;;;;49.67;34.58;;;;;;;;;;5034444;28;20382;-80
2020/12/21 08:53:17;;;;;;;47.45;33.75;;;;;;;;;;5057960;28;20739;-80
2020/12/21 08:55:43;;;;;;;43.17;31.45;;;;;;;;;;5050424;28;20367;-79
2020/12/21 08:58:10;;;;;;;51.17;33.17;;;;;;;;;;5039856;28;20928;-80
2020/12/21 09:00:36;;;;;;;44.75;31.92;;;;;;;;;;5041459;28;20894;-82
2020/12/21 09:03:02;;;;;;;48.17;33.85;;;;;;;;;;5038888;28;21121;-80
2020/12/21 09:05:28;;;;;;;48.70;34.20;;;;;;;;;;5042297;28;20883;-79
2020/12/21 09:07:54;;;;;;;52.58;35.10;;;;;;;;;;5044279;28;20383;-79
2020/12/21 09:10:20;;;;;;;45.95;32.80;;;;;;;;;;5039703;28;20374;-79
2020/12/21 09:12:46;;;;;;;44.33;32.63;;;;;;;;;;5041603;28;20386;-79
2020/12/21 09:15:12;;;;;;;44.90;33.00;;;;;;;;;;5032327;28;20396;-79
2020/12/21 09:17:37;;;;;;;44.78;32.25;;;;;;;;;;5040755;28;20387;-78
2020/12/21 09:20:03;;;;;;;44.83;32.22;;;;;;;;;;5059567;28;20960;-80
2020/12/21 09:22:29;;;;;;;37.63;28.38;;;;;;;;;;5038388;28;20388;-81
2020/12/21 09:24:57;;;;;;;34.88;27.80;;;;;;;;;;5059015;28;20372;-80
2020/12/21 09:27:22;;;;;;;37.47;29.23;;;;;;;;;;5058583;28;20401;-78
2020/12/21 09:29:48;;;;;;;39.25;28.88;;;;;;;;;;5056238;28;20951;-80
2020/12/21 09:32:14;;;;;;;37.57;28.13;;;;;;;;;;5056709;28;20367;-80
2020/12/21 09:34:40;;;;;;;36.45;28.20;;;;;;;;;;5057931;28;20854;-81
2020/12/21 09:37:06;;;;;;;37.00;28.17;;;;;;;;;;5055871;28;20403;-80
2020/12/21 09:39:32;;;;;;;35.42;27.70;;;;;;;;;;5058176;28;20401;-81
2020/12/21 09:41:58;;;;;;;38.35;28.25;;;;;;;;;;5043506;28;20394;-80
2020/12/21 09:44:24;;;;;;;33.88;26.08;;;;;;;;;;5039612;28;20399;-81
2020/12/21 09:46:51;;;;;;;33.13;26.50;;;;;;;;;;5058727;28;20451;-81
2020/12/21 09:49:17;;;;;;;33.65;25.67;;;;;;;;;;5042124;28;20382;-80
2020/12/21 09:51:43;;;;;;;32.28;25.90;;;;;;;;;;5057820;28;20453;-79
2020/12/21 09:54:10;;;;;;;32.38;25.13;;;;;;;;;;5039208;28;20391;-80
2020/12/21 09:56:35;;;;;;;32.10;25.65;;;;;;;;;;5057108;28;20354;-80
2020/12/21 09:59:01;;;;;;;30.52;23.35;;;;;;;;;;5059865;28;20782;-81
2020/12/21 10:01:29;;;;;;;31.77;23.87;;;;;;;;;;5059735;28;20550;-79
2020/12/21 10:03:55;;;;;;;27.02;22.27;;;;;;;;;;5036798;28;20376;-80
2020/12/21 10:06:21;;;;;;;29.35;23.60;;;;;;;;;;5059130;28;20384;-81
2020/12/21 10:08:47;;;;;;;29.90;22.70;;;;;;;;;;5057185;28;20848;-79
2020/12/21 10:11:18;;;;;;;28.10;22.95;;;;;;;;;;5058484;28;20449;-79
2020/12/21 10:13:44;;;;;;;28.35;21.52;;;;;;;;;;5040784;28;20376;-81
2020/12/21 10:16:10;;;;;;;25.38;21.17;;;;;;;;;;5058627;28;20384;-82
2020/12/21 10:18:37;;;;;;;26.30;22.27;;;;;;;;;;5058946;28;20376;-85
2020/12/21 10:21:06;;;;;;;27.08;22.50;;;;;;;;;;5043925;28;20876;-81
2020/12/21 10:23:32;;;;;;;28.65;22.30;;;;;;;;;;5060084;28;20372;-81
2020/12/21 10:26:01;;;;;;;27.80;21.17;;;;;;;;;;5063846;28;20417;-80
2020/12/21 10:28:27;;;;;;;29.70;21.60;;;;;;;;;;5043852;28;20878;-82
2020/12/21 10:30:53;;;;;;;27.70;21.27;;;;;;;;;;5044360;28;20405;-82
2020/12/21 10:33:19;;;;;;;26.10;20.23;;;;;;;;;;5063405;28;20395;-80
2020/12/21 10:35:45;;;;;;;27.83;20.40;;;;;;;;;;5068745;28;20381;-81
2020/12/21 10:38:12;;;;;;;25.75;19.35;;;;;;;;;;5048563;28;20380;-82
2020/12/21 10:40:38;;;;;;;24.13;20.17;;;;;;;;;;5051900;28;20913;-82
2020/12/21 10:43:04;;;;;;;22.92;18.60;;;;;;;;;;5062835;28;20833;-83
2020/12/21 10:45:30;;;;;;;24.90;19.50;;;;;;;;;;5073561;28;20840;-81
2020/12/21 10:47:56;;;;;;;24.85;19.48;;;;;;;;;;5055363;28;20424;-83
2020/12/21 10:50:22;;;;;;;23.58;19.63;;;;;;;;;;5066146;28;20454;-81
2020/12/21 10:52:48;;;;;;;22.45;18.50;;;;;;;;;;5034750;28;20398;-80
2020/12/21 10:55:14;;;;;;;25.17;18.77;;;;;;;;;;5052549;28;20931;-81
2020/12/21 10:57:40;;;;;;;23.15;17.92;;;;;;;;;;5034788;28;20908;-80
2020/12/21 11:00:07;;;;;;;20.05;16.70;;;;;;;;;;5055153;28;20392;-80
2020/12/21 11:02:33;;;;;;;21.88;17.15;;;;;;;;;;5059858;28;20367;-80
2020/12/21 11:04:59;;;;;;;21.60;17.17;;;;;;;;;;5057739;28;20407;-80
2020/12/21 11:07:28;;;;;;;22.30;17.02;;;;;;;;;;5060107;28;20368;-80
2020/12/21 11:09:54;;;;;;;23.20;16.83;;;;;;;;;;5060487;28;20377;-81
2020/12/21 11:12:22;;;;;;;19.03;15.30;;;;;;;;;;5059991;28;20386;-80
2020/12/21 11:14:49;;;;;;;20.70;14.95;;;;;;;;;;5060057;28;20767;-80
2020/12/21 11:17:15;;;;;;;19.50;15.93;;;;;;;;;;5057894;28;20356;-80
2020/12/21 11:19:41;;;;;;;20.75;15.75;;;;;;;;;;5056598;28;20830;-80
2020/12/21 11:22:07;;;;;;;19.25;15.35;;;;;;;;;;5061860;28;20376;-80
2020/12/21 11:24:33;;;;;;;20.75;14.95;;;;;;;;;;5041873;28;20897;-82
2020/12/21 11:26:59;;;;;;;19.25;15.45;;;;;;;;;;5056435;28;20839;-81
2020/12/21 11:29:25;;;;;;;21.25;14.95;;;;;;;;;;5043415;28;20370;-81
2020/12/21 11:31:51;;;;;;;18.63;14.20;;;;;;;;;;5059024;28;20891;-80
2020/12/21 11:34:18;;;;;;;18.50;15.73;;;;;;;;;;5057834;28;20781;-81
2020/12/21 11:36:45;;;;;;;20.42;16.73;;;;;;;;;;5044200;28;20382;-80
2020/12/21 11:39:11;;;;;;;20.02;16.27;;;;;;;;;;5052044;28;20392;-80
2020/12/21 11:41:37;;;;;;;21.48;15.07;;;;;;;;;;5060898;28;20371;-81
2020/12/21 11:44:04;;;;;;;19.27;14.45;;;;;;;;;;5057861;28;20399;-83
2020/12/21 11:46:30;;;;;;;20.40;14.75;;;;;;;;;;5037580;28;20435;-80
2020/12/21 11:48:57;;;;;;;20.95;13.82;;;;;;;;;;5055440;28;20888;-80
2020/12/21 11:51:23;;;;;;;19.58;14.60;;;;;;;;;;5055270;28;20367;-80
2020/12/21 11:53:49;;;;;;;18.48;14.85;;;;;;;;;;5056593;28;20371;-80
2020/12/21 11:56:16;;;;;;;20.43;13.83;;;;;;;;;;5058685;28;20439;-78
2020/12/21 11:58:43;;;;;;;18.27;13.80;;;;;;;;;;5059249;28;20399;-79
2020/12/21 12:01:09;;;;;;;17.95;13.30;;;;;;;;;;5038784;28;20384;-79
2020/12/21 12:03:35;;;;;;;17.33;12.82;;;;;;;;;;5055424;28;20415;-79
2020/12/21 12:06:01;;;;;;;18.40;14.13;;;;;;;;;;5057635;28;20913;-78
2020/12/21 12:08:27;;;;;;;18.75;13.73;;;;;;;;;;5056617;28;20383;-79
2020/12/21 12:10:54;;;;;;;20.10;13.55;;;;;;;;;;5058566;28;20721;-78
2020/12/21 12:13:20;;;;;;;20.45;12.93;;;;;;;;;;5038977;28;20387;-78
2020/12/21 12:15:46;;;;;;;14.93;12.40;;;;;;;;;;5059460;28;20408;-80
2020/12/21 12:18:12;;;;;;;16.15;13.02;;;;;;;;;;5064341;28;20471;-79
2020/12/21 12:20:38;;;;;;;17.45;13.05;;;;;;;;;;5046529;28;20405;-80
2020/12/21 12:23:04;;;;;;;17.33;12.70;;;;;;;;;;5044226;28;20850;-79
2020/12/21 12:25:30;;;;;;;16.40;12.45;;;;;;;;;;5056823;28;20391;-81
2020/12/21 12:27:56;;;;;;;16.60;12.20;;;;;;;;;;5058220;28;20383;-80
2020/12/21 12:30:23;;;;;;;16.15;11.77;;;;;;;;;;5055426;28;20379;-80
2020/12/21 12:32:50;;;;;;;17.83;12.13;;;;;;;;;;5060360;28;20457;-80
2020/12/21 12:35:17;;;;;;;14.73;11.30;;;;;;;;;;5059442;28;20430;-79
2020/12/21 12:37:44;;;;;;;15.32;11.48;;;;;;;;;;5058495;28;20366;-79
2020/12/21 12:40:10;;;;;;;16.55;11.82;;;;;;;;;;5060698;28;20419;-83
2020/12/21 12:42:36;;;;;;;16.93;11.97;;;;;;;;;;5039562;28;20707;-78
2020/12/21 12:45:05;;;;;;;17.27;12.02;;;;;;;;;;5062345;28;20364;-78
2020/12/21 12:47:31;;;;;;;17.77;12.02;;;;;;;;;;5037949;28;20453;-78
2020/12/21 12:49:57;;;;;;;16.17;11.05;;;;;;;;;;5060634;28;20414;-77
2020/12/21 12:52:23;;;;;;;16.77;11.82;;;;;;;;;;5039328;28;20941;-79
2020/12/21 12:54:49;;;;;;;16.55;11.63;;;;;;;;;;5045896;28;20428;-79
2020/12/21 12:57:16;;;;;;;18.33;11.15;;;;;;;;;;5064194;28;20382;-80
2020/12/21 12:59:42;;;;;;;18.15;11.23;;;;;;;;;;5045171;28;20394;-82
2020/12/21 13:02:11;;;;;;;12.98;10.57;;;;;;;;;;5061129;28;20379;-80
2020/12/21 13:04:37;;;;;;;16.35;11.25;;;;;;;;;;5062146;28;20402;-83
2020/12/21 13:07:04;;;;;;;14.25;10.50;;;;;;;;;;5045967;28;20377;-80
2020/12/21 13:09:30;;;;;;;15.30;11.35;;;;;;;;;;5063215;28;20449;-79
2020/12/21 13:11:56;;;;;;;14.07;10.70;;;;;;;;;;5057274;28;20403;-81
2020/12/21 13:14:22;;;;;;;14.32;11.57;;;;;;;;;;5067887;28;20451;-78
2020/12/21 13:16:48;;;;;;;17.60;11.40;;;;;;;;;;5035784;28;20415;-79
2020/12/21 13:19:14;;;;;;;18.23;11.83;;;;;;;;;;5067502;28;20877;-77
2020/12/21 13:21:40;;;;;;;16.00;11.38;;;;;;;;;;5045034;28;20403;-78
2020/12/21 13:24:06;;;;;;;14.82;11.02;;;;;;;;;;5049025;28;20489;-76
2020/12/21 13:26:32;;;;;;;19.50;11.55;;;;;;;;;;5048980;28;20368;-77
2020/12/21 13:28:58;;;;;;;15.15;11.02;;;;;;;;;;5031488;28;20382;-77
2020/12/21 13:31:24;;;;;;;15.95;10.30;;;;;;;;;;5049733;28;20855;-78
2020/12/21 13:33:50;;;;;;;14.13;10.00;;;;;;;;;;5049757;28;20359;-79
2020/12/21 13:36:16;;;;;;;14.88;10.48;;;;;;;;;;5049041;28;20356;-78
2020/12/21 13:38:42;;;;;;;12.80;10.38;;;;;;;;;;5031477;28;20376;-78
2020/12/21 13:41:09;;;;;;;10.63;9.20;;;;;;;;;;5052171;28;20370;-80
2020/12/21 13:43:40;;;;;;;13.75;9.57;;;;;;;;;;5058833;28;20371;-78
2020/12/21 13:46:06;;;;;;;15.47;10.30;;;;;;;;;;5042420;28;20398;-78
2020/12/21 13:48:32;;;;;;;14.63;10.00;;;;;;;;;;5058153;28;20451;-78
2020/12/21 13:50:58;;;;;;;14.48;9.82;;;;;;;;;;5055709;28;20360;-78
2020/12/21 13:53:24;;;;;;;16.60;10.45;;;;;;;;;;5059630;28;20360;-78
2020/12/21 13:55:50;;;;;;;15.85;10.95;;;;;;;;;;5057987;28;20365;-79
2020/12/21 13:58:16;;;;;;;14.35;10.23;;;;;;;;;;5048133;28;20455;-77
2020/12/21 14:00:42;;;;;;;16.45;11.73;;;;;;;;;;5074176;28;20760;-78
2020/12/21 14:03:08;;;;;;;14.88;10.90;;;;;;;;;;5074405;28;20350;-76
2020/12/21 14:05:34;;;;;;;15.38;10.73;;;;;;;;;;5051731;28;20375;-78
2020/12/21 14:08:02;;;;;;;14.82;10.57;;;;;;;;;;5033042;28;20368;-78
2020/12/21 14:10:28;;;;;;;16.67;11.50;;;;;;;;;;5035218;28;20383;-78
2020/12/21 14:12:54;;;;;;;15.48;11.65;;;;;;;;;;5065661;28;20381;-78